createdAt,value
2023-04-12T00:00:39.893Z,73.27
2023-04-12T00:03:19.698Z,73.42
2023-04-12T00:05:56.755Z,73.38
2023-04-12T00:08:42.300Z,73.56
2023-04-12T00:11:06.537Z,73.45
2023-04-12T00:13:32.773Z,73.49
2023-04-12T00:15:57.017Z,73.35
2023-04-12T00:18:24.345Z,73.33
2023-04-12T00:20:47.909Z,73.40
2023-04-12T00:23:14.048Z,73.44
2023-04-12T00:25:57.989Z,73.43
2023-04-12T00:28:22.190Z,73.33
2023-04-12T00:30:46.802Z,73.50
2023-04-12T00:33:10.422Z,73.49
2023-04-12T00:35:40.530Z,73.43
2023-04-12T00:38:11.953Z,73.53
2023-04-12T00:40:42.338Z,73.66
2023-04-12T00:43:27.219Z,73.77
2023-04-12T00:45:51.384Z,73.80
2023-04-12T00:48:28.315Z,73.77
2023-04-12T00:50:55.293Z,73.75
2023-04-12T00:53:22.419Z,73.88
2023-04-12T00:55:50.968Z,73.99
2023-04-12T00:58:15.912Z,74.19
2023-04-12T01:00:39.675Z,74.21
2023-04-12T01:03:04.906Z,74.12
2023-04-12T01:05:29.141Z,74.27
2023-04-12T01:08:04.575Z,74.30
2023-04-12T01:10:38.987Z,74.32
2023-04-12T01:13:16.811Z,74.27
2023-04-12T01:15:58.498Z,74.26
2023-04-12T01:18:25.200Z,74.52
2023-04-12T01:20:54.348Z,74.40
2023-04-12T01:23:42.321Z,74.37
2023-04-12T01:26:32.744Z,74.34
2023-04-12T01:29:01.472Z,74.56
2023-04-12T01:31:28.073Z,74.65
2023-04-12T01:33:53.037Z,74.71
2023-04-12T01:36:22.397Z,74.64
2023-04-12T01:38:56.160Z,74.68
2023-04-12T01:41:29.285Z,74.76
2023-04-12T01:43:52.959Z,74.79
2023-04-12T01:46:27.405Z,74.87
2023-04-12T01:49:12.822Z,75.02
2023-04-12T01:52:02.778Z,74.94
2023-04-12T01:54:31.151Z,75.08
2023-04-12T01:57:01.292Z,74.97
2023-04-12T01:59:30.312Z,75.07
2023-04-12T02:01:54.271Z,75.11
2023-04-12T02:04:22.098Z,75.09
2023-04-12T02:06:48.044Z,74.96
2023-04-12T02:09:25.508Z,75.11
2023-04-12T02:11:50.442Z,75.09
2023-04-12T02:14:14.054Z,75.01
2023-04-12T02:16:38.210Z,75.06
2023-04-12T02:19:01.931Z,75.09
2023-04-12T02:21:25.668Z,75.08
2023-04-12T02:23:49.864Z,75.09
2023-04-12T02:26:13.551Z,75.08
2023-04-12T02:28:37.935Z,75.23
2023-04-12T02:31:01.893Z,75.13
2023-04-12T02:33:27.534Z,75.21
2023-04-12T02:35:51.626Z,75.14
2023-04-12T02:38:16.312Z,75.14
2023-04-12T02:40:41.567Z,75.27
2023-04-12T02:43:07.316Z,75.23
2023-04-12T02:45:31.527Z,75.24
2023-04-12T02:47:55.408Z,75.28
2023-04-12T02:50:21.980Z,75.31
2023-04-12T02:52:54.388Z,75.26
2023-04-12T02:55:18.450Z,75.27
2023-04-12T02:57:42.404Z,75.22
2023-04-12T03:00:11.583Z,75.18
2023-04-12T03:02:45.376Z,75.19
2023-04-12T03:05:17.194Z,74.98
2023-04-12T03:07:40.782Z,75.09
2023-04-12T03:10:07.260Z,75.19
2023-04-12T03:12:31.707Z,75.05
2023-04-12T03:15:15.471Z,75.09
2023-04-12T03:17:42.503Z,75.15
2023-04-12T03:20:09.274Z,75.21
2023-04-12T03:22:33.577Z,75.24
2023-04-12T03:24:57.664Z,75.22
2023-04-12T03:27:21.826Z,75.33
2023-04-12T03:29:45.950Z,75.35
2023-04-12T03:32:10.397Z,75.35
2023-04-12T03:34:34.598Z,75.50
2023-04-12T03:37:04.557Z,75.35
2023-04-12T03:39:40.307Z,75.31
2023-04-12T03:42:05.582Z,75.29
2023-04-12T03:44:29.184Z,75.36
2023-04-12T03:46:54.521Z,75.45
2023-04-12T03:49:19.120Z,75.45
2023-04-12T03:51:44.893Z,75.52
2023-04-12T03:54:09.094Z,75.54
2023-04-12T03:56:40.446Z,75.55
2023-04-12T03:59:08.587Z,75.55
2023-04-12T04:01:33.044Z,75.46
2023-04-12T04:03:58.821Z,75.54
2023-04-12T04:06:23.513Z,75.51
2023-04-12T04:08:48.325Z,75.72
2023-04-12T04:11:12.520Z,75.57
2023-04-12T04:13:38.848Z,75.61
2023-04-12T04:16:06.450Z,75.52
2023-04-12T04:18:29.302Z,75.51
2023-04-12T04:20:56.202Z,75.55
2023-04-12T04:23:20.338Z,75.56
2023-04-12T04:25:47.314Z,75.56
2023-04-12T04:28:10.914Z,75.57
2023-04-12T04:30:38.198Z,75.61
2023-04-12T04:33:02.355Z,75.62
2023-04-12T04:35:29.139Z,75.61
2023-04-12T04:38:19.712Z,75.58
2023-04-12T04:40:47.286Z,75.56
2023-04-12T04:43:13.279Z,75.58
2023-04-12T04:45:40.808Z,75.57
2023-04-12T04:48:13.900Z,75.50
2023-04-12T04:50:37.710Z,75.49
2023-04-12T04:53:01.804Z,75.51
2023-04-12T04:55:26.822Z,75.40
2023-04-12T04:57:53.576Z,75.43
2023-04-12T05:00:19.263Z,75.41
2023-04-12T05:02:48.750Z,75.40
2023-04-12T05:05:22.534Z,75.27
2023-04-12T05:07:46.758Z,75.19
2023-04-12T05:10:11.648Z,75.20
2023-04-12T05:12:37.776Z,75.21
2023-04-12T05:17:28.129Z,75.11
2023-04-12T05:19:52.181Z,74.94
2023-04-12T05:22:19.693Z,74.91
2023-04-12T05:24:43.386Z,74.90
2023-04-12T05:27:07.170Z,74.89
2023-04-12T05:29:31.244Z,74.82
2023-04-12T05:31:54.956Z,74.76
2023-04-12T05:34:19.577Z,74.68
2023-04-12T05:36:52.460Z,74.59
2023-04-12T05:39:16.579Z,74.52
2023-04-12T05:41:41.715Z,74.69
2023-04-12T05:44:05.269Z,74.62
2023-04-12T05:46:29.344Z,74.42
2023-04-12T05:48:53.027Z,74.34
2023-04-12T05:51:18.212Z,74.18
2023-04-12T05:53:43.463Z,74.08
2023-04-12T05:56:10.469Z,73.93
2023-04-12T05:58:34.336Z,73.97
2023-04-12T06:00:57.966Z,73.94
2023-04-12T06:03:23.805Z,73.92
2023-04-12T06:05:53.686Z,73.81
2023-04-12T06:08:17.276Z,73.60
2023-04-12T06:10:41.854Z,73.44
2023-04-12T06:13:05.878Z,73.09
2023-04-12T06:15:31.440Z,73.09
2023-04-12T06:17:59.173Z,72.97
2023-04-12T06:20:25.692Z,72.66
2023-04-12T06:22:49.574Z,72.50
2023-04-12T06:25:15.816Z,72.43
2023-04-12T06:27:46.809Z,72.42
2023-04-12T06:30:13.768Z,72.26
2023-04-12T06:32:58.109Z,71.94
2023-04-12T06:35:21.978Z,71.84
2023-04-12T06:37:46.147Z,71.83
2023-04-12T06:40:12.057Z,71.81
2023-04-12T06:42:35.976Z,71.88
2023-04-12T06:45:00.233Z,71.84
2023-04-12T06:47:44.600Z,71.80
2023-04-12T06:50:11.784Z,71.75
2023-04-12T06:52:35.423Z,71.77
2023-04-12T06:54:59.064Z,71.74
2023-04-12T06:57:22.688Z,71.47
2023-04-12T06:59:46.330Z,71.33
2023-04-12T07:02:10.507Z,71.37
2023-04-12T07:04:34.528Z,71.41
2023-04-12T07:07:06.395Z,71.43
2023-04-12T07:09:32.576Z,71.51
2023-04-12T07:11:59.737Z,71.62
2023-04-12T07:14:23.733Z,71.63
2023-04-12T07:16:47.700Z,71.64
2023-04-12T07:19:11.923Z,71.57
2023-04-12T07:21:35.745Z,71.48
2023-04-12T07:23:59.605Z,71.41
2023-04-12T07:26:43.301Z,71.15
2023-04-12T07:29:07.737Z,71.15
2023-04-12T07:31:31.628Z,71.07
2023-04-12T07:33:55.515Z,71.06
2023-04-12T07:36:21.167Z,71.09
2023-04-12T07:39:05.360Z,70.90
2023-04-12T07:41:38.015Z,70.71
2023-04-12T07:44:01.695Z,70.59
2023-04-12T07:46:25.484Z,70.54
2023-04-12T07:48:49.501Z,70.57
2023-04-12T07:51:22.369Z,70.63
2023-04-12T07:53:47.701Z,70.71
2023-04-12T07:56:34.297Z,70.91
2023-04-12T07:58:58.024Z,70.78
2023-04-12T08:01:21.656Z,70.71
2023-04-12T08:03:46.638Z,70.69
2023-04-12T08:06:32.362Z,70.48
2023-04-12T08:09:01.339Z,70.48
2023-04-12T08:11:38.794Z,70.63
2023-04-12T08:14:05.708Z,70.85
2023-04-12T08:16:32.551Z,70.96
2023-04-12T08:18:58.190Z,70.65
2023-04-12T08:21:24.582Z,70.73
2023-04-12T08:23:50.294Z,70.75
2023-04-12T08:26:13.888Z,70.75
2023-04-12T08:28:39.530Z,70.71
2023-04-12T08:31:04.356Z,70.60
2023-04-12T08:33:28.046Z,70.70
2023-04-12T08:35:52.510Z,70.64
2023-04-12T08:38:44.173Z,70.59
2023-04-12T08:41:09.816Z,70.54
2023-04-12T08:43:35.514Z,70.61
2023-04-12T08:45:59.990Z,70.29
2023-04-12T08:48:25.444Z,70.33
2023-04-12T08:51:01.716Z,70.66
2023-04-12T08:53:25.855Z,70.86
2023-04-12T08:55:49.240Z,71.12
2023-04-12T08:58:14.826Z,71.19
2023-04-12T09:00:39.644Z,71.32
2023-04-12T09:03:03.273Z,71.11
2023-04-12T09:05:30.215Z,71.21
2023-04-12T09:07:54.203Z,70.83
2023-04-12T09:10:32.867Z,70.42
2023-04-12T09:12:56.543Z,69.80
2023-04-12T09:15:23.324Z,69.07
2023-04-12T09:17:49.460Z,68.51
2023-04-12T09:20:25.397Z,68.38
2023-04-12T09:22:49.550Z,68.24
2023-04-12T09:25:13.797Z,67.80
2023-04-12T09:27:47.622Z,67.53
2023-04-12T09:30:13.537Z,67.38
2023-04-12T09:32:37.974Z,66.84
2023-04-12T09:35:02.243Z,66.51
2023-04-12T09:37:26.143Z,66.07
2023-04-12T09:40:00.777Z,65.39
2023-04-12T09:42:32.510Z,64.72
2023-04-12T09:44:59.276Z,63.49
2023-04-12T09:47:24.444Z,62.78
2023-04-12T09:49:48.179Z,62.38
2023-04-12T09:52:13.494Z,62.04
2023-04-12T09:54:42.331Z,62.16
2023-04-12T09:57:07.694Z,61.89
2023-04-12T09:59:38.041Z,61.56
2023-04-12T10:02:04.435Z,61.37
2023-04-12T10:04:29.741Z,61.44
2023-04-12T10:06:53.865Z,61.08
2023-04-12T10:09:17.617Z,60.79
2023-04-12T10:11:42.124Z,60.47
2023-04-12T10:14:06.813Z,60.05
2023-04-12T10:16:33.704Z,59.90
2023-04-12T10:19:01.649Z,59.84
2023-04-12T10:21:26.286Z,59.47
2023-04-12T10:23:50.198Z,59.24
2023-04-12T10:26:16.438Z,58.96
2023-04-12T10:28:40.540Z,58.55
2023-04-12T10:31:29.934Z,58.33
2023-04-12T10:33:55.822Z,58.08
2023-04-12T10:36:19.550Z,57.55
2023-04-12T10:38:47.510Z,57.75
2023-04-12T10:41:17.808Z,57.34
2023-04-12T10:43:42.149Z,57.06
2023-04-12T10:46:06.437Z,56.69
2023-04-12T10:48:34.491Z,56.39
2023-04-12T10:51:14.161Z,55.80
2023-04-12T10:53:37.697Z,55.71
2023-04-12T10:56:41.165Z,55.63
2023-04-12T10:59:07.862Z,55.63
2023-04-12T11:02:03.307Z,55.06
2023-04-12T11:04:27.147Z,54.33
2023-04-12T11:07:09.556Z,53.46
2023-04-12T11:09:40.705Z,52.55
2023-04-12T11:12:13.923Z,52.25
2023-04-12T11:14:38.877Z,52.24
2023-04-12T11:17:24.566Z,51.43
2023-04-12T11:19:52.185Z,50.84
2023-04-12T11:22:17.850Z,50.27
2023-04-12T11:24:43.123Z,50.84
2023-04-12T11:27:06.591Z,50.06
2023-04-12T11:29:31.925Z,49.81
2023-04-12T11:31:55.599Z,49.43
2023-04-12T11:34:19.803Z,49.08
2023-04-12T11:36:44.516Z,48.68
2023-04-12T11:39:08.686Z,47.86
2023-04-12T11:41:32.374Z,47.43
2023-04-12T11:43:55.858Z,47.66
2023-04-12T11:46:19.707Z,47.75
2023-04-12T11:48:45.614Z,47.81
2023-04-12T11:51:24.228Z,47.67
2023-04-12T11:53:53.453Z,47.80
2023-04-12T11:56:16.894Z,48.25
2023-04-12T11:58:40.432Z,48.32
2023-04-12T12:01:04.987Z,48.51
2023-04-12T12:03:29.055Z,48.82
2023-04-12T12:05:53.682Z,48.72
2023-04-12T12:08:19.145Z,48.93
2023-04-12T12:10:59.691Z,48.95
2023-04-12T12:13:24.042Z,48.89
2023-04-12T12:15:54.688Z,48.82
2023-04-12T12:18:18.254Z,48.35
2023-04-12T12:20:47.484Z,47.76
2023-04-12T12:23:10.960Z,47.39
2023-04-12T12:25:34.782Z,47.19
2023-04-12T12:27:58.588Z,47.05
2023-04-12T12:30:22.777Z,46.82
2023-04-12T12:32:46.491Z,46.20
2023-04-12T12:35:11.986Z,46.27
2023-04-12T12:37:35.596Z,46.37
2023-04-12T12:40:07.580Z,45.76
2023-04-12T12:42:31.884Z,45.39
2023-04-12T12:44:55.333Z,45.29
2023-04-12T12:47:18.890Z,45.33
2023-04-12T12:49:42.745Z,45.24
2023-04-12T12:52:06.431Z,45.06
2023-04-12T12:54:40.483Z,45.25
2023-04-12T12:57:05.039Z,45.28
2023-04-12T12:59:28.613Z,45.40
2023-04-12T13:01:52.204Z,45.15
2023-04-12T13:04:15.914Z,45.16
2023-04-12T13:06:40.047Z,45.19
2023-04-12T13:09:06.320Z,45.29
2023-04-12T13:11:32.869Z,45.19
2023-04-12T13:13:56.215Z,45.04
2023-04-12T13:16:19.963Z,45.67
2023-04-12T13:18:46.754Z,45.59
2023-04-12T13:21:10.239Z,45.84
2023-04-12T13:23:34.294Z,46.00
2023-04-12T13:25:57.855Z,46.24
2023-04-12T13:28:21.294Z,46.42
2023-04-12T13:30:45.193Z,46.44
2023-04-12T13:33:08.934Z,46.38
2023-04-12T13:35:32.549Z,46.64
2023-04-12T13:37:55.981Z,46.88
2023-04-12T13:40:19.763Z,47.25
2023-04-12T13:42:43.681Z,47.49
2023-04-12T13:45:10.562Z,47.82
2023-04-12T13:47:34.753Z,47.92
2023-04-12T13:50:02.010Z,48.01
2023-04-12T13:52:28.560Z,48.05
2023-04-12T13:54:55.180Z,48.14
2023-04-12T13:57:18.522Z,47.82
2023-04-12T13:59:42.012Z,47.69
2023-04-12T14:02:06.356Z,47.51
2023-04-12T14:04:31.449Z,47.70
2023-04-12T14:06:56.265Z,47.88
2023-04-12T14:09:27.274Z,48.03
2023-04-12T14:11:51.371Z,48.19
2023-04-12T14:14:16.839Z,47.98
2023-04-12T14:16:41.063Z,47.98
2023-04-12T14:19:04.540Z,48.26
2023-04-12T14:21:28.699Z,48.49
2023-04-12T14:23:52.216Z,48.60
2023-04-12T14:26:16.749Z,48.95
2023-04-12T14:28:40.355Z,48.62
2023-04-12T14:31:06.439Z,48.40
2023-04-12T14:33:30.553Z,48.77
2023-04-12T14:35:54.145Z,48.40
2023-04-12T14:38:18.148Z,48.38
2023-04-12T14:40:41.634Z,48.50
2023-04-12T14:43:05.317Z,48.55
2023-04-12T14:45:29.339Z,48.57
2023-04-12T14:47:52.911Z,48.77
2023-04-12T14:50:16.651Z,48.93
2023-04-12T14:52:40.328Z,48.79
2023-04-12T14:55:04.476Z,48.78
2023-04-12T14:57:27.898Z,48.94
2023-04-12T14:59:51.718Z,49.06
2023-04-12T15:02:15.875Z,49.21
2023-04-12T15:04:39.861Z,49.31
2023-04-12T15:07:03.882Z,49.54
2023-04-12T15:09:28.108Z,49.67
2023-04-12T15:11:55.586Z,49.69
2023-04-12T15:14:19.680Z,49.42
2023-04-12T15:16:43.142Z,49.77
2023-04-12T15:19:15.296Z,49.70
2023-04-12T15:21:42.976Z,49.70
2023-04-12T15:24:06.972Z,49.75
2023-04-12T15:26:31.110Z,49.79
2023-04-12T15:28:54.599Z,49.84
2023-04-12T15:31:27.772Z,49.94
2023-04-12T15:33:51.331Z,49.97
2023-04-12T15:36:16.093Z,49.94
2023-04-12T15:38:42.491Z,49.97
2023-04-12T15:41:07.216Z,49.98
2023-04-12T15:43:30.974Z,50.08
2023-04-12T15:45:55.594Z,50.24
2023-04-12T15:48:19.602Z,50.30
2023-04-12T15:50:44.687Z,50.31
2023-04-12T15:53:08.136Z,50.51
2023-04-12T15:55:31.627Z,50.59
2023-04-12T15:57:56.564Z,50.61
2023-04-12T16:00:22.534Z,50.56
2023-04-12T16:02:49.316Z,50.62
2023-04-12T16:05:13.967Z,50.76
2023-04-12T16:07:40.239Z,51.04
2023-04-12T16:10:05.750Z,51.08
2023-04-12T16:12:32.127Z,51.33
2023-04-12T16:14:56.050Z,51.66
2023-04-12T16:17:20.357Z,51.86
2023-04-12T16:19:44.307Z,51.93
2023-04-12T16:22:16.633Z,52.22
2023-04-12T16:24:40.344Z,52.44
2023-04-12T16:27:04.006Z,52.68
2023-04-12T16:29:31.241Z,52.87
2023-04-12T16:31:54.810Z,52.98
2023-04-12T16:34:21.241Z,53.24
2023-04-12T16:36:45.268Z,53.54
2023-04-12T16:39:12.622Z,53.81
2023-04-12T16:41:42.080Z,53.95
2023-04-12T16:44:05.823Z,53.97
2023-04-12T16:46:29.784Z,54.12
2023-04-12T16:48:54.182Z,54.45
2023-04-12T16:51:17.744Z,54.63
2023-04-12T16:53:41.441Z,55.00
2023-04-12T16:56:05.698Z,55.15
2023-04-12T16:58:29.323Z,55.31
2023-04-12T17:00:55.285Z,55.53
2023-04-12T17:03:20.670Z,55.76
2023-04-12T17:05:44.701Z,55.83
2023-04-12T17:08:09.116Z,56.10
2023-04-12T17:10:33.772Z,56.39
2023-04-12T17:13:20.065Z,56.60
2023-04-12T17:15:46.247Z,56.85
2023-04-12T17:18:10.209Z,57.02
2023-04-12T17:20:34.219Z,57.20
2023-04-12T17:22:58.326Z,57.23
2023-04-12T17:25:24.562Z,57.42
2023-04-12T17:28:11.428Z,57.58
2023-04-12T17:30:37.230Z,57.73
2023-04-12T17:33:01.466Z,57.85
2023-04-12T17:35:25.563Z,57.96
2023-04-12T17:37:49.462Z,58.26
2023-04-12T17:40:33.539Z,58.48
2023-04-12T17:42:57.341Z,58.54
2023-04-12T17:45:23.052Z,58.69
2023-04-12T17:47:46.482Z,58.69
2023-04-12T17:50:30.664Z,58.91
2023-04-12T17:52:58.299Z,59.05
2023-04-12T17:55:23.552Z,59.28
2023-04-12T17:57:47.258Z,59.38
2023-04-12T18:00:13.710Z,59.44
2023-04-12T18:02:37.246Z,59.67
2023-04-12T18:05:00.923Z,59.96
2023-04-12T18:07:26.696Z,60.31
2023-04-12T18:09:50.506Z,60.48
2023-04-12T18:12:32.906Z,60.70
2023-04-12T18:14:58.486Z,60.93
2023-04-12T18:17:42.972Z,61.35
2023-04-12T18:20:09.976Z,61.46
2023-04-12T18:22:53.725Z,61.75
2023-04-12T18:25:17.329Z,61.93
2023-04-12T18:27:41.608Z,62.08
2023-04-12T18:30:07.711Z,62.27
2023-04-12T18:32:33.603Z,62.48
2023-04-12T18:34:57.290Z,62.59
2023-04-12T18:37:21.116Z,62.68
2023-04-12T18:39:48.738Z,62.83
2023-04-12T18:42:13.398Z,62.90
2023-04-12T18:44:37.430Z,63.00
2023-04-12T18:47:00.963Z,63.11
2023-04-12T18:49:25.209Z,63.19
2023-04-12T18:51:49.044Z,63.26
2023-04-12T18:54:14.442Z,63.28
2023-04-12T18:56:38.242Z,63.31
2023-04-12T18:59:03.144Z,63.30
2023-04-12T19:01:26.768Z,63.38
2023-04-12T19:03:50.744Z,63.51
2023-04-12T19:06:15.265Z,63.55
2023-04-12T19:08:39.724Z,63.63
2023-04-12T19:11:06.944Z,63.63
2023-04-12T19:13:31.196Z,63.78
2023-04-12T19:15:55.062Z,63.79
2023-04-12T19:18:21.179Z,63.91
2023-04-12T19:20:44.807Z,63.93
2023-04-12T19:23:08.710Z,64.01
2023-04-12T19:25:32.592Z,64.11
2023-04-12T19:27:56.901Z,64.21
2023-04-12T19:30:31.057Z,64.31
2023-04-12T19:32:54.596Z,64.34
2023-04-12T19:35:18.461Z,64.47
2023-04-12T19:37:41.998Z,64.48
2023-04-12T19:40:11.235Z,64.54
2023-04-12T19:42:35.252Z,64.62
2023-04-12T19:45:01.812Z,64.80
2023-04-12T19:47:25.384Z,64.91
2023-04-12T19:49:49.201Z,64.93
2023-04-12T19:52:14.708Z,65.03
2023-04-12T19:54:39.047Z,65.02
2023-04-12T19:57:04.589Z,65.12
2023-04-12T19:59:30.240Z,65.28
2023-04-12T20:01:55.310Z,65.37
2023-04-12T20:04:21.518Z,65.37
2023-04-12T20:06:44.896Z,65.39
2023-04-12T20:09:10.199Z,65.53
2023-04-12T20:11:35.412Z,65.53
2023-04-12T20:13:59.280Z,65.61
2023-04-12T20:16:45.093Z,65.65
2023-04-12T20:19:09.517Z,65.63
2023-04-12T20:21:33.671Z,65.76
2023-04-12T20:24:00.973Z,65.96
2023-04-12T20:26:26.928Z,65.97
2023-04-12T20:28:50.711Z,66.07
2023-04-12T20:31:17.033Z,66.19
2023-04-12T20:33:41.552Z,66.34
2023-04-12T20:36:06.248Z,66.30
2023-04-12T20:38:31.280Z,66.31
2023-04-12T20:40:56.084Z,66.37
2023-04-12T20:43:21.872Z,66.44
2023-04-12T20:45:46.397Z,66.45
2023-04-12T20:48:13.698Z,66.53
2023-04-12T20:50:57.905Z,66.63
2023-04-12T20:53:23.336Z,66.68
2023-04-12T20:55:55.975Z,66.70
2023-04-12T20:58:19.719Z,66.70
2023-04-12T21:00:43.247Z,66.77
2023-04-12T21:03:07.637Z,66.94
2023-04-12T21:05:33.092Z,66.92
2023-04-12T21:07:57.075Z,66.98
2023-04-12T21:10:23.676Z,67.20
2023-04-12T21:12:53.037Z,67.35
2023-04-12T21:15:21.130Z,67.39
2023-04-12T21:17:45.715Z,67.45
2023-04-12T21:20:13.174Z,67.53
2023-04-12T21:22:45.420Z,67.78
2023-04-12T21:25:15.939Z,67.80
2023-04-12T21:27:41.143Z,67.79
2023-04-12T21:30:06.840Z,67.79
2023-04-12T21:32:32.063Z,67.85
2023-04-12T21:34:55.514Z,67.91
2023-04-12T21:37:21.472Z,67.86
2023-04-12T21:39:45.607Z,67.86
2023-04-12T21:42:29.912Z,68.06
2023-04-12T21:44:56.327Z,68.14
2023-04-12T21:47:41.045Z,68.30
2023-04-12T21:50:09.653Z,68.01
2023-04-12T21:52:32.377Z,68.03
2023-04-12T21:54:56.416Z,68.01
2023-04-12T21:57:21.006Z,67.91
2023-04-12T21:59:46.747Z,67.87
2023-04-12T22:02:12.676Z,67.97
2023-04-12T22:04:47.797Z,67.95
2023-04-12T22:07:21.134Z,67.90
2023-04-12T22:09:45.540Z,67.89
2023-04-12T22:12:21.194Z,68.00
2023-04-12T22:14:46.372Z,68.04
2023-04-12T22:17:14.108Z,68.11
2023-04-12T22:19:58.295Z,68.18
2023-04-12T22:22:32.002Z,68.27
2023-04-12T22:25:11.429Z,68.27
2023-04-12T22:27:36.010Z,68.27
2023-04-12T22:30:02.888Z,68.38
2023-04-12T22:32:27.099Z,68.44
2023-04-12T22:34:57.945Z,68.44
2023-04-12T22:37:29.515Z,68.66
2023-04-12T22:39:54.432Z,68.64
2023-04-12T22:42:20.083Z,68.63
2023-04-12T22:44:44.045Z,68.76
2023-04-12T22:47:08.130Z,68.75
2023-04-12T22:49:45.644Z,68.75
2023-04-12T22:52:13.056Z,68.86
2023-04-12T22:54:36.615Z,68.91
2023-04-12T22:57:03.858Z,68.92
2023-04-12T22:59:27.522Z,68.97
2023-04-12T23:02:06.144Z,69.06
2023-04-12T23:04:30.092Z,69.16
2023-04-12T23:06:54.899Z,69.17
2023-04-12T23:09:21.351Z,69.06
2023-04-12T23:11:46.829Z,69.15
2023-04-12T23:14:10.434Z,69.16
2023-04-12T23:16:43.452Z,69.13
2023-04-12T23:19:28.326Z,69.28
2023-04-12T23:22:21.795Z,69.32
2023-04-12T23:25:07.145Z,69.33
2023-04-12T23:27:31.368Z,69.49
2023-04-12T23:29:54.770Z,69.48
2023-04-12T23:32:21.462Z,69.50
2023-04-12T23:34:46.222Z,69.55
2023-04-12T23:37:19.110Z,69.82
2023-04-12T23:39:44.508Z,69.83
2023-04-12T23:42:09.037Z,70.06
2023-04-12T23:44:32.814Z,69.96
2023-04-12T23:46:56.559Z,69.97
2023-04-12T23:49:20.616Z,70.23
2023-04-12T23:51:44.211Z,70.30
2023-04-12T23:54:07.996Z,70.53
2023-04-12T23:56:36.114Z,70.62
2023-04-12T23:59:21.005Z,70.88
